Decoded Metar for SBFL (FLORIANOPOLIS in BRAZIL) (IATA:FLN) | Meteo·Mobile Aviation Weather
aviador You're here:

SBFL Decoded Metar

FLORIANOPOLIS in BRAZIL
Report Time2018-11-16 07:00:00
UTC Time2018-11-16 07:10:57
Flight Rules vfr VFR
Wind320° at 05 kt
W.Decomp.*RWY 32: 4.7 kt HW 1.6 kt RCW
RWY 03: 3.1 kt HW 3.9 kt LCW
W.Rank320° ranks 7
Current wind is below 320° avg. (6.2)
Visibility9999 m
Phenomena:N/A
Clouds:N/A
Expected CloudBase > 2,800 ft AGL from Temp-Dew spread
CeilingNone
Temp22°C (ISA +7)
Dew Point15°C (65% RH)
AAT21.9°C
QNH1015 hPa
Density Alt994 ft
Elevation16 ft
Report Wrong Elevation
Raw Report
METAR SBFL 160700Z 32005KT CAVOK 22/15 Q1015=

Extra information for SBFL:More info

Metar Taf Metar & Taf Last 4 Metars F.Rules Stats Wind Profile Meteogram Temp Stats Airport Information Weather charts Add Link Nearby VenuesMetar ALERT Operation Metar Decoded Social comments